KSAR

Sparta Community-Hunter Field Airport

Sparta, Illinois, USA
METAR KSAR 231055Z AUTO 26016G21KT 10SM OVC019 02/00 A2983 RMK AO2 T00211002
Observed Flight Rules
Jan-23 @ 10:55 UTC (an hour ago) Marginal Visual Flight Rules
Wind Visibility Clouds
260° at 16 knots
 Gusting to 21 knots
10 miles
  • Overcast at 1,900' AGL
Temperatures Readings
Current 2°C / 36°F
Dewpoint -0°C / 32°F
Humidity 87%
Altimeter 29.83" Hg
Pressure 1010 hPa
Elevation 164
METAR KSAR 231055Z AUTO 26016G21KT 10SM OVC019 02/00 A2983 RMK AO2 T00211002
Observed Flight Rules
Jan-23 @ 10:55 UTC
(an hour ago)
MVFR
Wind Visibility
260° at 16 knots
 Gusting to 21 knots
10 miles
Clouds
  • Overcast at 1,900' AGL
Temperature Dewpoint
2°C / 36°F -0°C / 32°F
Humidity Altimeter Pressure
87% 29.83" Hg 1010 hPa